createdAt,value
2018-10-21T00:00:04.319Z,95.41
2018-10-21T00:01:04.313Z,94.93
2018-10-21T00:02:04.316Z,95.03
2018-10-21T00:03:04.319Z,95.70
2018-10-21T00:04:04.859Z,97.13
2018-10-21T00:05:04.863Z,96.94
2018-10-21T00:06:04.273Z,96.65
2018-10-21T00:07:04.272Z,97.41
2018-10-21T00:08:04.259Z,96.46
2018-10-21T00:09:04.285Z,95.12
2018-10-21T00:10:04.251Z,95.12
2018-10-21T00:11:04.237Z,96.36
2018-10-21T00:12:04.231Z,97.03
2018-10-21T00:13:04.225Z,96.84
2018-10-21T00:14:04.241Z,97.60
2018-10-21T00:15:04.227Z,97.79
2018-10-21T00:16:04.197Z,97.98
2018-10-21T00:17:04.196Z,97.69
2018-10-21T00:18:04.247Z,98.27
2018-10-21T00:19:04.172Z,98.65
2018-10-21T00:20:04.170Z,98.93
2018-10-21T00:21:04.176Z,98.08
2018-10-21T00:22:04.149Z,98.65
2018-10-21T00:23:04.143Z,97.88
2018-10-21T00:24:04.128Z,97.69
2018-10-21T00:25:04.869Z,97.88
2018-10-21T00:26:04.129Z,97.60
2018-10-21T00:27:04.134Z,98.83
2018-10-21T00:28:04.882Z,96.46
2018-10-21T00:29:04.108Z,95.79
2018-10-21T00:30:04.083Z,95.70
2018-10-21T00:31:08.870Z,96.55
2018-10-21T00:32:05.874Z,95.51
2018-10-21T00:33:04.879Z,93.79
2018-10-21T00:34:04.052Z,93.89
2018-10-21T00:35:04.871Z,94.84
2018-10-21T00:36:04.048Z,95.22
2018-10-21T00:37:04.032Z,96.26
2018-10-21T00:38:04.034Z,97.50
2018-10-21T00:39:04.098Z,97.79
2018-10-21T00:40:06.884Z,97.22
2018-10-21T00:41:04.002Z,97.13
2018-10-21T00:42:05.876Z,97.88
2018-10-21T00:43:03.993Z,97.22
2018-10-21T00:44:04.875Z,96.94
2018-10-21T00:45:03.967Z,96.74
2018-10-21T00:46:03.957Z,96.74
2018-10-21T00:47:06.875Z,98.12
2018-10-21T00:48:03.938Z,97.31
2018-10-21T00:49:03.937Z,97.03
2018-10-21T00:50:03.925Z,96.79
2018-10-21T00:51:03.928Z,96.79
2018-10-21T00:52:04.881Z,97.08
2018-10-21T00:53:04.879Z,96.08
2018-10-21T00:54:04.913Z,95.60
2018-10-21T00:55:04.909Z,96.26
2018-10-21T00:56:03.878Z,96.31
2018-10-21T00:57:04.431Z,97.13
2018-10-21T00:58:04.387Z,97.08
2018-10-21T00:59:04.379Z,96.98
2018-10-21T01:00:03.843Z,97.17
2018-10-21T01:01:04.380Z,97.45
2018-10-21T01:02:04.400Z,97.27
2018-10-21T01:03:03.839Z,96.69
2018-10-21T01:04:03.812Z,96.60
2018-10-21T01:05:03.812Z,95.84
2018-10-21T01:06:03.792Z,96.50
2018-10-21T01:07:08.396Z,97.17
2018-10-21T01:08:03.793Z,96.12
2018-10-21T01:09:03.802Z,95.65
2018-10-21T01:10:03.758Z,95.94
2018-10-21T01:11:03.752Z,96.03
2018-10-21T01:12:03.751Z,96.22
2018-10-21T01:13:03.740Z,96.69
2018-10-21T01:14:04.385Z,97.17
2018-10-21T01:15:03.772Z,96.89
2018-10-21T01:16:03.716Z,96.03
2018-10-21T01:17:03.703Z,96.12
2018-10-21T01:18:04.385Z,96.89
2018-10-21T01:19:03.708Z,96.22
2018-10-21T01:20:03.687Z,97.27
2018-10-21T01:21:03.704Z,96.12
2018-10-21T01:22:03.683Z,96.69
2018-10-21T01:23:03.657Z,97.55
2018-10-21T01:24:03.648Z,97.27
2018-10-21T01:25:03.643Z,97.64
2018-10-21T01:26:04.389Z,97.08
2018-10-21T01:27:04.422Z,99.55
2018-10-21T01:28:03.619Z,97.83
2018-10-21T01:29:03.618Z,97.83
2018-10-21T01:30:03.608Z,99.55
2018-10-21T01:31:06.390Z,99.99
2018-10-21T01:32:03.583Z,99.99
2018-10-21T01:33:03.610Z,99.64
2018-10-21T01:34:03.568Z,99.99
2018-10-21T01:35:04.394Z,99.99
2018-10-21T01:36:03.549Z,99.99
2018-10-21T01:37:03.548Z,99.99
2018-10-21T01:38:06.455Z,99.99
2018-10-21T01:39:04.450Z,99.99
2018-10-21T01:40:03.518Z,99.64
2018-10-21T01:41:04.395Z,99.99
2018-10-21T01:42:04.396Z,99.99
2018-10-21T01:43:03.497Z,99.99
2018-10-21T01:44:03.483Z,99.99
2018-10-21T01:45:05.555Z,99.99
2018-10-21T01:46:03.469Z,99.26
2018-10-21T01:47:28.453Z,99.07
2018-10-21T01:48:04.409Z,99.99
2018-10-21T01:49:03.454Z,99.99
2018-10-21T01:50:03.440Z,99.99
2018-10-21T01:51:03.450Z,99.99
2018-10-21T01:52:03.418Z,99.99
2018-10-21T01:53:03.409Z,99.69
2018-10-21T01:54:03.922Z,99.50
2018-10-21T01:55:04.897Z,98.83
2018-10-21T01:56:03.898Z,99.99
2018-10-21T01:57:03.383Z,99.99
2018-10-21T01:58:03.377Z,99.50
2018-10-21T01:59:03.368Z,99.99
2018-10-21T02:00:03.361Z,98.97
2018-10-21T02:01:03.339Z,99.78
2018-10-21T02:02:03.906Z,99.99
2018-10-21T02:03:03.399Z,99.99
2018-10-21T02:04:03.319Z,99.99
2018-10-21T02:05:03.316Z,99.99
2018-10-21T02:06:03.302Z,99.99
2018-10-21T02:07:03.300Z,99.99
2018-10-21T02:08:03.300Z,99.99
2018-10-21T02:09:03.303Z,99.99
2018-10-21T02:10:03.274Z,99.99
2018-10-21T02:11:03.265Z,99.99
2018-10-21T02:12:03.256Z,99.99
2018-10-21T02:14:35.752Z,99.99
2018-10-21T02:15:35.711Z,99.99
2018-10-21T02:16:38.412Z,99.99
2018-10-21T02:17:36.413Z,99.99
2018-10-21T02:18:35.686Z,99.99
2018-10-21T02:19:35.650Z,99.99
2018-10-21T02:20:35.655Z,99.99
2018-10-21T02:21:40.402Z,99.99
2018-10-21T02:22:36.402Z,99.99
2018-10-21T02:23:36.407Z,99.99
2018-10-21T02:24:35.603Z,99.99
2018-10-21T02:25:35.601Z,99.99
2018-10-21T02:26:35.622Z,99.99
2018-10-21T02:27:36.407Z,99.99
2018-10-21T02:28:36.409Z,99.99
2018-10-21T02:29:35.566Z,99.99
2018-10-21T02:30:35.560Z,99.99
2018-10-21T02:31:35.544Z,99.99
2018-10-21T02:32:35.567Z,99.99
2018-10-21T02:33:35.761Z,99.99
2018-10-21T02:34:35.524Z,99.99
2018-10-21T02:35:42.473Z,99.99
2018-10-21T02:36:35.510Z,99.99
2018-10-21T02:37:35.493Z,99.99
2018-10-21T02:38:35.488Z,99.99
2018-10-21T02:39:36.415Z,99.99
2018-10-21T02:40:35.474Z,99.99
2018-10-21T02:41:36.415Z,99.99
2018-10-21T02:42:56.459Z,99.99
2018-10-21T02:43:36.413Z,99.99
2018-10-21T02:44:35.434Z,99.99
2018-10-21T02:45:35.429Z,99.99
2018-10-21T02:46:35.419Z,99.99
2018-10-21T02:47:35.422Z,99.99
2018-10-21T02:48:37.917Z,99.99
2018-10-21T02:49:35.917Z,99.99
2018-10-21T02:50:36.914Z,99.99
2018-10-21T02:51:35.413Z,99.99
2018-10-21T02:52:36.912Z,99.99
2018-10-21T02:53:35.363Z,99.99
2018-10-21T02:54:35.360Z,99.99
2018-10-21T02:55:35.347Z,99.99
2018-10-21T02:56:35.342Z,99.99
2018-10-21T02:57:35.919Z,99.99
2018-10-21T02:58:35.314Z,99.99
2018-10-21T02:59:35.324Z,99.99
2018-10-21T03:00:35.303Z,99.99
2018-10-21T03:01:35.292Z,99.99
2018-10-21T03:02:37.937Z,99.99
2018-10-21T03:03:35.940Z,99.99
2018-10-21T03:04:35.265Z,99.99
2018-10-21T03:05:35.260Z,99.99
2018-10-21T03:06:35.253Z,99.99
2018-10-21T03:07:35.252Z,99.99
2018-10-21T03:08:35.230Z,99.99
2018-10-21T03:09:36.918Z,99.99
2018-10-21T03:10:35.216Z,99.99
2018-10-21T03:11:35.202Z,99.99
2018-10-21T03:14:23.958Z,99.99
2018-10-21T03:15:07.715Z,99.99
2018-10-21T03:16:07.627Z,99.99
2018-10-21T03:18:40.070Z,99.99
2018-10-21T03:19:40.780Z,99.99
2018-10-21T03:21:34.607Z,99.99
2018-10-21T03:22:33.557Z,99.99
2018-10-21T03:23:33.544Z,99.99
2018-10-21T03:24:33.538Z,99.99
2018-10-21T03:25:33.539Z,99.99
2018-10-21T03:28:05.886Z,99.99
2018-10-21T03:29:05.834Z,99.99
2018-10-21T03:31:01.051Z,99.99
2018-10-21T03:32:00.998Z,99.99
2018-10-21T03:33:01.137Z,99.99
2018-10-21T03:34:02.970Z,99.99
2018-10-21T03:35:01.770Z,99.99
2018-10-21T03:36:00.955Z,99.99
2018-10-21T03:37:00.945Z,99.99
2018-10-21T03:38:00.937Z,99.99
2018-10-21T03:39:00.945Z,99.99
2018-10-21T03:40:00.943Z,99.99
2018-10-21T03:41:01.773Z,99.99
2018-10-21T03:42:00.902Z,99.99
2018-10-21T03:43:00.895Z,99.99
2018-10-21T03:44:00.890Z,99.99
2018-10-21T03:45:00.879Z,99.99
2018-10-21T03:46:00.937Z,99.99
2018-10-21T03:47:00.865Z,99.99
2018-10-21T03:48:02.774Z,99.99
2018-10-21T03:49:02.783Z,99.99
2018-10-21T03:50:00.843Z,99.99
2018-10-21T03:51:07.786Z,99.99
2018-10-21T03:52:00.872Z,99.99
2018-10-21T03:53:00.815Z,99.99
2018-10-21T03:54:01.781Z,99.99
2018-10-21T03:55:00.800Z,99.99
2018-10-21T03:56:00.780Z,99.99
2018-10-21T03:57:01.277Z,99.99
2018-10-21T03:58:00.766Z,99.99
2018-10-21T03:59:00.827Z,99.99
2018-10-21T04:00:01.275Z,99.99
2018-10-21T04:01:01.284Z,99.99
2018-10-21T04:02:00.732Z,99.99
2018-10-21T04:03:02.287Z,99.99
2018-10-21T04:04:00.730Z,99.99
2018-10-21T04:05:00.700Z,99.99
2018-10-21T04:06:00.697Z,99.99
2018-10-21T04:07:00.716Z,99.99
2018-10-21T04:08:01.280Z,99.99
2018-10-21T04:09:00.668Z,99.99
2018-10-21T04:10:00.668Z,99.99
2018-10-21T04:11:00.648Z,99.99
2018-10-21T04:12:00.639Z,99.99
2018-10-21T04:13:00.638Z,99.99
2018-10-21T04:14:01.287Z,99.99
2018-10-21T04:15:01.292Z,99.99
2018-10-21T04:16:00.646Z,99.99
2018-10-21T04:17:00.598Z,99.99
2018-10-21T04:18:00.590Z,99.99
2018-10-21T04:19:00.595Z,99.99
2018-10-21T04:20:02.285Z,99.99
2018-10-21T04:21:02.280Z,99.99
2018-10-21T04:22:02.329Z,99.99
2018-10-21T04:23:00.557Z,99.99
2018-10-21T04:24:01.284Z,99.99
2018-10-21T04:25:00.533Z,99.99
2018-10-21T04:26:00.542Z,99.99
2018-10-21T04:27:01.298Z,99.99
2018-10-21T04:28:01.302Z,99.99
2018-10-21T04:29:00.498Z,99.99
2018-10-21T04:30:00.513Z,99.99
2018-10-21T04:31:00.478Z,99.99
2018-10-21T04:32:00.477Z,99.99
2018-10-21T04:33:00.505Z,99.99
2018-10-21T04:34:00.508Z,99.99
2018-10-21T04:35:00.441Z,99.99
2018-10-21T04:36:02.289Z,99.99
2018-10-21T04:37:00.435Z,99.99
2018-10-21T04:38:00.424Z,99.99
2018-10-21T04:39:00.412Z,99.99
2018-10-21T04:40:00.466Z,99.99
2018-10-21T04:41:02.288Z,99.99
2018-10-21T04:42:00.382Z,99.99
2018-10-21T04:43:00.407Z,99.99
2018-10-21T04:44:00.370Z,99.99
2018-10-21T04:45:00.356Z,99.99
2018-10-21T04:46:00.407Z,99.99
2018-10-21T04:47:01.558Z,99.99
2018-10-21T04:48:01.293Z,99.99
2018-10-21T04:49:01.298Z,99.99
2018-10-21T04:50:00.340Z,99.99
2018-10-21T04:51:00.305Z,99.99
2018-10-21T04:52:00.353Z,99.99
2018-10-21T04:53:00.284Z,99.99
2018-10-21T04:54:01.797Z,99.99
2018-10-21T04:55:00.265Z,99.99
2018-10-21T04:56:01.804Z,99.99
2018-10-21T04:57:00.252Z,99.99
2018-10-21T04:58:00.299Z,99.99
2018-10-21T04:59:00.235Z,99.99
2018-10-21T05:00:00.230Z,99.99
2018-10-21T05:01:16.889Z,99.99
2018-10-21T05:02:00.805Z,99.99
2018-10-21T05:03:00.216Z,99.99
2018-10-21T05:04:00.207Z,99.99
2018-10-21T05:05:00.180Z,99.99
2018-10-21T05:06:00.176Z,99.99
2018-10-21T05:07:00.798Z,99.99
2018-10-21T05:08:00.820Z,99.99
2018-10-21T05:09:00.170Z,99.99
2018-10-21T05:10:00.183Z,99.99
2018-10-21T05:11:02.817Z,99.99
2018-10-21T05:12:00.118Z,99.99
2018-10-21T05:13:00.120Z,99.99
2018-10-21T05:14:02.808Z,99.99
2018-10-21T05:15:00.097Z,99.99
2018-10-21T05:16:00.807Z,99.99
2018-10-21T05:17:00.804Z,99.99
2018-10-21T05:18:00.812Z,99.99
2018-10-21T05:19:00.063Z,99.99
2018-10-21T05:20:00.808Z,99.99
2018-10-21T05:21:00.807Z,99.99
2018-10-21T05:22:00.809Z,99.99
2018-10-21T05:23:00.037Z,99.99
2018-10-21T05:24:00.077Z,99.99
2018-10-21T05:25:00.004Z,99.99
2018-10-21T05:25:59.999Z,99.99
2018-10-21T05:27:00.008Z,99.99
2018-10-21T05:28:00.107Z,99.99
2018-10-21T05:28:59.974Z,99.99
2018-10-21T05:30:01.816Z,99.99
2018-10-21T05:30:59.967Z,99.99
2018-10-21T05:31:59.950Z,99.99
2018-10-21T05:32:59.996Z,99.99
2018-10-21T05:34:00.858Z,99.99
2018-10-21T05:34:59.917Z,99.99
2018-10-21T05:35:59.908Z,99.99
2018-10-21T05:36:59.902Z,99.99
2018-10-21T05:37:59.975Z,99.99
2018-10-21T05:38:59.886Z,99.99
2018-10-21T05:40:00.870Z,99.99
2018-10-21T05:41:00.808Z,99.99
2018-10-21T05:42:00.814Z,99.99
2018-10-21T05:42:59.850Z,99.99
2018-10-21T05:44:01.823Z,99.99
2018-10-21T05:44:59.833Z,99.99
2018-10-21T05:45:59.848Z,99.99
2018-10-21T05:47:00.345Z,99.99
2018-10-21T05:48:01.317Z,99.99
2018-10-21T05:48:59.797Z,99.99
2018-10-21T05:49:59.790Z,99.99
2018-10-21T05:51:00.321Z,99.99
2018-10-21T05:51:59.839Z,99.99
2018-10-21T05:52:59.773Z,99.99
2018-10-21T05:54:00.318Z,99.99
2018-10-21T05:54:59.742Z,99.99
2018-10-21T05:56:00.330Z,99.99
2018-10-21T05:56:59.747Z,99.99
2018-10-21T05:58:00.445Z,99.99
2018-10-21T05:58:59.709Z,99.99
2018-10-21T05:59:59.701Z,99.99
2018-10-21T06:01:01.339Z,99.99
2018-10-21T06:01:59.681Z,99.99
2018-10-21T06:02:59.741Z,99.99
2018-10-21T06:04:01.359Z,99.99
2018-10-21T06:04:59.656Z,99.99
2018-10-21T06:05:59.651Z,99.99
2018-10-21T06:06:59.644Z,99.99
2018-10-21T06:07:59.634Z,99.99
2018-10-21T06:08:59.628Z,99.99
2018-10-21T06:09:59.620Z,99.99
2018-10-21T06:10:59.608Z,99.99
2018-10-21T06:11:59.590Z,99.99
2018-10-21T06:12:59.582Z,99.99
2018-10-21T06:14:00.321Z,99.99
2018-10-21T06:14:59.566Z,99.99
2018-10-21T06:15:59.622Z,99.99
2018-10-21T06:16:59.549Z,99.99
2018-10-21T06:17:59.545Z,99.99
2018-10-21T06:19:00.337Z,99.99
2018-10-21T06:19:59.567Z,99.99
2018-10-21T06:20:59.516Z,99.99
2018-10-21T06:21:59.519Z,99.99
2018-10-21T06:22:59.492Z,99.99
2018-10-21T06:23:59.488Z,99.99
2018-10-21T06:24:59.480Z,99.99
2018-10-21T06:25:59.466Z,99.99
2018-10-21T06:27:00.325Z,99.99
2018-10-21T06:27:59.445Z,99.99
2018-10-21T06:28:59.461Z,99.99
2018-10-21T06:29:59.429Z,99.99
2018-10-21T06:30:59.422Z,99.99
2018-10-21T06:31:59.414Z,99.99
2018-10-21T06:32:59.449Z,99.99
2018-10-21T06:33:59.401Z,99.99
2018-10-21T06:34:59.385Z,99.99
2018-10-21T06:35:59.378Z,99.99
2018-10-21T06:36:59.364Z,99.99
2018-10-21T06:37:59.357Z,99.99
2018-10-21T06:38:59.370Z,99.99
2018-10-21T06:39:59.340Z,99.99
2018-10-21T06:40:59.332Z,99.99
2018-10-21T06:41:59.328Z,99.99
2018-10-21T06:42:59.320Z,99.99
2018-10-21T06:43:59.307Z,99.99
2018-10-21T06:44:59.353Z,99.99
2018-10-21T06:45:59.301Z,99.99
2018-10-21T06:46:59.311Z,99.99
2018-10-21T06:47:59.270Z,99.99
2018-10-21T06:48:59.259Z,99.99
2018-10-21T06:49:59.252Z,99.99
2018-10-21T06:51:03.875Z,99.99
2018-10-21T06:51:59.236Z,99.99
2018-10-21T06:52:59.234Z,99.99
2018-10-21T06:53:59.214Z,99.99
2018-10-21T06:54:59.208Z,99.99
2018-10-21T06:55:59.197Z,99.99
2018-10-21T06:56:59.288Z,99.99
2018-10-21T06:57:59.196Z,99.99
2018-10-21T06:58:59.177Z,99.99
2018-10-21T06:59:59.162Z,99.99
2018-10-21T07:00:59.153Z,99.99
2018-10-21T07:01:59.148Z,99.99
2018-10-21T07:02:59.137Z,99.99
2018-10-21T07:03:59.154Z,99.99
2018-10-21T07:04:59.181Z,99.99
2018-10-21T07:05:59.112Z,99.99
2018-10-21T07:06:59.847Z,99.99
2018-10-21T07:07:59.090Z,99.99
2018-10-21T07:08:59.086Z,99.99
2018-10-21T07:09:59.079Z,99.99
2018-10-21T07:10:59.068Z,99.99
2018-10-21T07:11:59.054Z,99.99
2018-10-21T07:12:59.057Z,99.99
2018-10-21T07:13:59.043Z,99.99
2018-10-21T07:14:59.035Z,99.99
2018-10-21T07:15:59.124Z,99.99
2018-10-21T07:16:59.024Z,99.99
2018-10-21T07:17:59.023Z,99.99
2018-10-21T07:18:58.992Z,99.99
2018-10-21T07:19:59.002Z,99.99
2018-10-21T07:20:59.842Z,99.99
2018-10-21T07:21:58.985Z,99.99
2018-10-21T07:22:58.962Z,99.99
2018-10-21T07:23:58.983Z,99.99
2018-10-21T07:25:00.843Z,99.99
2018-10-21T07:25:58.933Z,99.99
2018-10-21T07:26:58.935Z,99.99
2018-10-21T07:27:59.893Z,99.99
2018-10-21T07:29:01.068Z,99.99
2018-10-21T07:29:58.903Z,99.99
2018-10-21T07:30:59.850Z,99.99
2018-10-21T07:31:58.884Z,99.99
2018-10-21T07:32:59.857Z,99.99
2018-10-21T07:33:58.946Z,99.99
2018-10-21T07:34:58.857Z,99.99
2018-10-21T07:35:58.851Z,99.99
2018-10-21T07:36:58.851Z,99.99
2018-10-21T07:37:59.346Z,99.99
2018-10-21T07:38:59.351Z,99.99
2018-10-21T07:39:58.853Z,99.99
2018-10-21T07:40:58.803Z,99.99
2018-10-21T07:41:59.353Z,99.99
2018-10-21T07:42:58.788Z,99.99
2018-10-21T07:43:58.774Z,99.99
2018-10-21T07:44:58.802Z,99.99
2018-10-21T07:45:58.779Z,99.99
2018-10-21T07:46:58.768Z,99.99
2018-10-21T07:47:58.746Z,99.99
2018-10-21T07:48:58.766Z,99.99
2018-10-21T07:49:58.740Z,99.99
2018-10-21T07:50:58.717Z,99.99
2018-10-21T07:51:58.883Z,99.99
2018-10-21T07:52:59.349Z,99.99
2018-10-21T07:54:01.351Z,99.99
2018-10-21T07:54:58.692Z,99.99
2018-10-21T07:55:58.706Z,99.99
2018-10-21T07:56:58.664Z,99.99
2018-10-21T07:57:58.771Z,99.99
2018-10-21T07:58:58.653Z,99.99
2018-10-21T07:59:59.374Z,99.99
2018-10-21T08:00:58.698Z,99.99
2018-10-21T08:01:58.623Z,99.99
2018-10-21T08:02:58.613Z,99.99
2018-10-21T08:03:58.654Z,99.99
2018-10-21T08:04:58.608Z,99.99
2018-10-21T08:05:59.360Z,99.99
2018-10-21T08:07:00.416Z,99.99
2018-10-21T08:07:58.586Z,99.99
2018-10-21T08:08:58.570Z,99.99
2018-10-21T08:09:58.559Z,99.99
2018-10-21T08:10:58.548Z,99.99
2018-10-21T08:11:59.361Z,99.99
2018-10-21T08:13:01.365Z,99.99
2018-10-21T08:13:58.519Z,99.99
2018-10-21T08:14:58.562Z,99.99
2018-10-21T08:15:58.558Z,99.99
2018-10-21T08:16:58.501Z,99.99
2018-10-21T08:17:58.493Z,99.99
2018-10-21T08:18:58.486Z,99.99
2018-10-21T08:19:58.472Z,99.99
2018-10-21T08:20:58.475Z,99.99
2018-10-21T08:21:58.493Z,99.99
2018-10-21T08:22:58.445Z,99.99
2018-10-21T08:23:58.458Z,99.99
2018-10-21T08:24:58.433Z,99.99
2018-10-21T08:25:58.431Z,99.99
2018-10-21T08:26:59.388Z,99.99
2018-10-21T08:27:59.388Z,99.99
2018-10-21T08:28:58.401Z,99.99
2018-10-21T08:29:58.387Z,99.99
2018-10-21T08:30:58.448Z,99.99
2018-10-21T08:31:58.378Z,99.99
2018-10-21T08:32:58.378Z,99.99
2018-10-21T08:33:58.365Z,99.99
2018-10-21T08:34:58.873Z,99.99
2018-10-21T08:35:58.389Z,99.99
2018-10-21T08:36:58.332Z,99.99
2018-10-21T08:37:58.352Z,99.99
2018-10-21T08:38:58.321Z,99.99
2018-10-21T08:39:58.316Z,99.99
2018-10-21T08:40:58.417Z,99.41
2018-10-21T08:41:58.869Z,96.98
2018-10-21T08:42:58.918Z,96.32
2018-10-21T08:43:58.283Z,94.12
2018-10-21T08:44:58.284Z,93.55
2018-10-21T08:45:58.285Z,93.79
2018-10-21T08:46:58.267Z,92.46
2018-10-21T08:47:58.888Z,92.07
2018-10-21T08:48:58.921Z,91.78
2018-10-21T08:49:58.336Z,91.50
2018-10-21T08:51:00.877Z,91.55
2018-10-21T08:51:58.255Z,91.07
2018-10-21T08:52:58.230Z,90.36
2018-10-21T08:53:58.233Z,90.36
2018-10-21T08:54:58.262Z,91.78
2018-10-21T08:55:58.286Z,90.97
2018-10-21T08:56:58.221Z,91.55
2018-10-21T08:57:58.345Z,91.74
2018-10-21T08:58:58.218Z,91.36
2018-10-21T08:59:58.207Z,91.36
2018-10-21T09:00:58.272Z,89.73
2018-10-21T09:01:58.918Z,91.16
2018-10-21T09:02:58.202Z,90.73
2018-10-21T09:03:58.238Z,87.77
2018-10-21T09:04:58.199Z,87.62
2018-10-21T09:05:58.195Z,89.63
2018-10-21T09:06:58.245Z,87.72
2018-10-21T09:08:00.890Z,87.34
2018-10-21T09:08:58.204Z,87.24
2018-10-21T09:10:00.967Z,85.52
2018-10-21T09:10:58.932Z,84.19
2018-10-21T09:11:58.200Z,86.86
2018-10-21T09:12:58.256Z,85.24
2018-10-21T09:13:58.191Z,84.76
2018-10-21T09:14:58.932Z,84.95
2018-10-21T09:15:58.239Z,85.28
2018-10-21T09:16:58.185Z,85.09
2018-10-21T09:17:58.185Z,86.33
2018-10-21T09:18:58.213Z,83.46
2018-10-21T09:19:58.206Z,83.27
2018-10-21T09:20:58.183Z,84.13
2018-10-21T09:21:58.183Z,83.50
2018-10-21T09:22:58.190Z,82.49
2018-10-21T09:23:58.187Z,81.15
2018-10-21T09:24:58.262Z,79.05
2018-10-21T09:25:58.193Z,78.22
2018-10-21T09:26:58.187Z,77.31
2018-10-21T09:27:58.242Z,76.35
2018-10-21T09:28:58.186Z,77.02
2018-10-21T09:29:58.186Z,77.02
2018-10-21T09:30:58.296Z,76.10
2018-10-21T09:31:58.195Z,75.39
2018-10-21T09:32:58.186Z,75.39
2018-10-21T09:33:58.211Z,75.87
2018-10-21T09:34:58.198Z,77.69
2018-10-21T09:35:58.192Z,77.88
2018-10-21T09:36:58.246Z,77.92
2018-10-21T09:37:58.196Z,77.53
2018-10-21T09:38:58.198Z,76.29
2018-10-21T09:39:58.263Z,77.15
2018-10-21T09:40:58.209Z,74.98
2018-10-21T09:41:58.932Z,72.78
2018-10-21T09:42:58.288Z,73.83
2018-10-21T09:43:58.205Z,73.74
2018-10-21T09:44:58.207Z,72.45
2018-10-21T09:45:58.249Z,73.70
2018-10-21T09:46:58.234Z,74.27
2018-10-21T09:47:58.215Z,72.17
2018-10-21T09:48:58.254Z,72.55
2018-10-21T09:49:58.314Z,72.74
2018-10-21T09:50:58.218Z,74.85
2018-10-21T09:51:58.225Z,72.45
2018-10-21T09:52:58.231Z,72.55
2018-10-21T09:53:58.231Z,73.13
2018-10-21T09:54:58.237Z,72.45
2018-10-21T09:55:58.228Z,72.94
2018-10-21T09:56:58.277Z,72.68
2018-10-21T09:57:58.289Z,73.16
2018-10-21T09:58:58.237Z,72.59
2018-10-21T09:59:58.241Z,72.63
2018-10-21T10:00:58.290Z,72.24
2018-10-21T10:01:58.245Z,73.20
2018-10-21T10:02:58.937Z,71.76
2018-10-21T10:03:58.322Z,68.98
2018-10-21T10:04:58.297Z,71.37
2018-10-21T10:05:58.261Z,72.72
2018-10-21T10:06:58.295Z,71.28
2018-10-21T10:07:58.257Z,69.07
2018-10-21T10:08:58.265Z,69.84
2018-10-21T10:09:58.336Z,70.23
2018-10-21T10:10:58.268Z,68.79
2018-10-21T10:11:58.271Z,70.80
2018-10-21T10:12:58.305Z,70.32
2018-10-21T10:13:58.276Z,70.80
2018-10-21T10:14:58.300Z,69.74
2018-10-21T10:15:58.318Z,70.07
2018-10-21T10:16:58.290Z,70.74
2018-10-21T10:17:58.285Z,70.07
2018-10-21T10:18:59.052Z,67.99
2018-10-21T10:19:58.299Z,68.18
2018-10-21T10:20:58.297Z,69.81
2018-10-21T10:21:58.350Z,66.74
2018-10-21T10:22:58.308Z,65.40
2018-10-21T10:23:58.320Z,64.53
2018-10-21T10:24:59.011Z,65.43
2018-10-21T10:25:58.317Z,67.51
2018-10-21T10:26:58.315Z,67.99
2018-10-21T10:27:58.413Z,67.74
2018-10-21T10:28:58.327Z,64.95
2018-10-21T10:29:58.335Z,66.49
2018-10-21T10:30:58.339Z,66.49
2018-10-21T10:31:58.625Z,65.56
2018-10-21T10:32:58.337Z,64.69
2018-10-21T10:33:58.990Z,63.60
2018-10-21T10:34:58.341Z,64.79
2018-10-21T10:35:58.375Z,64.40
2018-10-21T10:36:58.405Z,63.48
2018-10-21T10:37:58.374Z,62.16
2018-10-21T10:38:58.380Z,61.19
2018-10-21T10:39:58.408Z,60.81
2018-10-21T10:40:58.374Z,60.84
2018-10-21T10:41:58.458Z,59.88
2018-10-21T10:42:58.371Z,60.36
2018-10-21T10:43:58.369Z,60.27
2018-10-21T10:44:58.375Z,60.36
2018-10-21T10:45:58.389Z,60.94
2018-10-21T10:46:59.968Z,61.04
2018-10-21T10:47:58.380Z,59.49
2018-10-21T10:48:58.467Z,59.30
2018-10-21T10:49:58.382Z,59.20
2018-10-21T10:50:58.384Z,59.20
2018-10-21T10:51:58.464Z,60.04
2018-10-21T10:52:58.450Z,60.14
2018-10-21T10:53:58.397Z,60.72
2018-10-21T10:54:58.464Z,61.58
2018-10-21T10:55:58.404Z,62.26
2018-10-21T10:56:58.408Z,62.26
2018-10-21T10:57:58.425Z,61.22
2018-10-21T10:58:58.413Z,61.04
2018-10-21T10:59:58.551Z,59.17
2018-10-21T11:00:58.486Z,60.52
2018-10-21T11:01:58.429Z,61.00
2018-10-21T11:02:58.432Z,60.81
2018-10-21T11:03:58.450Z,61.49
2018-10-21T11:04:59.005Z,62.35
2018-10-21T11:05:58.436Z,62.45
2018-10-21T11:06:58.465Z,62.38
2018-10-21T11:07:58.446Z,62.77
2018-10-21T11:08:58.447Z,60.27
2018-10-21T11:09:58.490Z,58.72
2018-10-21T11:10:58.454Z,58.44
2018-10-21T11:11:58.457Z,59.97
2018-10-21T11:12:58.523Z,58.72
2018-10-21T11:13:58.465Z,57.86
2018-10-21T11:14:58.475Z,57.86
2018-10-21T11:15:58.518Z,58.15
2018-10-21T11:16:58.480Z,58.15
2018-10-21T11:17:58.489Z,57.76
2018-10-21T11:18:58.513Z,58.63
2018-10-21T11:19:58.483Z,57.89
2018-10-21T11:20:58.495Z,56.92
2018-10-21T11:21:58.577Z,56.73
2018-10-21T11:22:58.494Z,56.05
2018-10-21T11:23:58.497Z,56.82
2018-10-21T11:24:58.539Z,56.63
2018-10-21T11:25:58.509Z,54.90
2018-10-21T11:26:58.519Z,56.32
2018-10-21T11:27:58.560Z,57.50
2018-10-21T11:28:58.515Z,56.44
2018-10-21T11:29:58.519Z,54.61
2018-10-21T11:30:58.537Z,54.90
2018-10-21T11:31:58.527Z,55.38
2018-10-21T11:32:58.527Z,55.02
2018-10-21T11:33:58.546Z,54.83
2018-10-21T11:34:58.547Z,54.93
2018-10-21T11:35:58.542Z,53.99
2018-10-21T11:36:58.586Z,54.28
2018-10-21T11:37:58.548Z,52.35
2018-10-21T11:38:58.547Z,53.03
2018-10-21T11:39:58.596Z,53.31
2018-10-21T11:40:58.555Z,53.03
2018-10-21T11:41:58.557Z,53.51
2018-10-21T11:42:58.607Z,54.28
2018-10-21T11:44:01.505Z,53.89
2018-10-21T11:44:58.562Z,53.89
2018-10-21T11:45:58.598Z,53.77
2018-10-21T11:46:58.569Z,53.09
2018-10-21T11:47:58.575Z,52.33
2018-10-21T11:48:58.643Z,52.11
2018-10-21T11:49:58.581Z,53.07
2018-10-21T11:50:58.581Z,53.72
2018-10-21T11:51:58.630Z,53.62
2018-10-21T11:52:58.586Z,55.45
2018-10-21T11:53:58.588Z,55.33
2018-10-21T11:54:58.648Z,55.43
2018-10-21T11:55:58.598Z,55.55
2018-10-21T11:56:58.603Z,56.51
2018-10-21T11:57:58.610Z,56.22
2018-10-21T11:58:58.605Z,55.07
2018-10-21T11:59:58.607Z,55.45
2018-10-21T12:00:58.727Z,55.26
2018-10-21T12:01:58.620Z,55.16
2018-10-21T12:02:58.617Z,55.16
2018-10-21T12:03:58.638Z,55.16
2018-10-21T12:04:58.620Z,55.35
2018-10-21T12:05:58.623Z,55.09
2018-10-21T12:06:58.653Z,55.87
2018-10-21T12:07:58.631Z,54.90
2018-10-21T12:08:58.637Z,53.96
2018-10-21T12:09:58.661Z,54.06
2018-10-21T12:10:58.642Z,52.93
2018-10-21T12:11:58.637Z,51.20
2018-10-21T12:12:58.704Z,50.62
2018-10-21T12:13:58.647Z,51.97
2018-10-21T12:14:58.656Z,51.48
2018-10-21T12:15:58.665Z,52.45
2018-10-21T12:16:58.658Z,52.45
2018-10-21T12:17:58.656Z,51.39
2018-10-21T12:18:58.719Z,51.39
2018-10-21T12:19:58.714Z,50.59
2018-10-21T12:20:58.672Z,51.65
2018-10-21T12:21:58.726Z,50.69
2018-10-21T12:22:58.741Z,51.34
2018-10-21T12:23:58.674Z,51.72
2018-10-21T12:24:58.716Z,52.40
2018-10-21T12:25:58.674Z,53.91
2018-10-21T12:26:58.682Z,52.85
2018-10-21T12:27:58.710Z,53.81
2018-10-21T12:28:58.719Z,54.32
2018-10-21T12:29:58.692Z,54.13
2018-10-21T12:30:58.699Z,54.03
2018-10-21T12:31:58.689Z,53.09
2018-10-21T12:32:58.694Z,52.52
2018-10-21T12:33:58.717Z,51.48
2018-10-21T12:34:58.767Z,50.88
2018-10-21T12:35:58.700Z,51.46
2018-10-21T12:36:58.755Z,50.13
2018-10-21T12:37:58.703Z,50.04
2018-10-21T12:38:58.706Z,50.90
2018-10-21T12:39:58.750Z,50.90
2018-10-21T12:40:58.756Z,49.05
2018-10-21T12:41:58.713Z,50.59
2018-10-21T12:42:58.767Z,49.82
2018-10-21T12:43:58.717Z,49.99
2018-10-21T12:44:58.725Z,51.05
2018-10-21T12:45:58.779Z,50.76
2018-10-21T12:46:58.744Z,51.53
2018-10-21T12:47:59.561Z,50.18
2018-10-21T12:48:58.792Z,50.93
2018-10-21T12:49:58.733Z,51.70
2018-10-21T12:50:58.737Z,52.18
2018-10-21T12:51:58.764Z,53.81
2018-10-21T12:52:58.754Z,53.81
2018-10-21T12:53:58.770Z,53.27
2018-10-21T12:54:58.750Z,52.97
2018-10-21T12:55:58.744Z,52.87
2018-10-21T12:56:58.741Z,51.14
2018-10-21T12:57:58.759Z,52.01
2018-10-21T12:58:58.747Z,50.57
2018-10-21T12:59:58.742Z,49.99